sensor_id;sensor_type;location;lat;lon;timestamp;P1;durP1;ratioP1;P2;durP2;ratioP2
64851;SDS011;56050;55.558;-4.644;2022-11-15T00:02:20;1.38;;;0.38;;
64851;SDS011;56050;55.558;-4.644;2022-11-15T00:04:46;3.17;;;0.82;;
64851;SDS011;56050;55.558;-4.644;2022-11-15T00:07:11;2.47;;;0.60;;
64851;SDS011;56050;55.558;-4.644;2022-11-15T00:09:36;1.17;;;0.50;;
64851;SDS011;56050;55.558;-4.644;2022-11-15T00:12:02;2.67;;;0.50;;
64851;SDS011;56050;55.558;-4.644;2022-11-15T00:14:27;1.88;;;0.30;;
64851;SDS011;56050;55.558;-4.644;2022-11-15T00:16:53;3.17;;;0.70;;
64851;SDS011;56050;55.558;-4.644;2022-11-15T00:19:18;1.75;;;0.85;;
64851;SDS011;56050;55.558;-4.644;2022-11-15T00:21:44;1.65;;;0.73;;
64851;SDS011;56050;55.558;-4.644;2022-11-15T00:24:09;1.83;;;0.63;;
64851;SDS011;56050;55.558;-4.644;2022-11-15T00:26:35;1.77;;;1.17;;
64851;SDS011;56050;55.558;-4.644;2022-11-15T00:29:00;3.13;;;0.60;;
64851;SDS011;56050;55.558;-4.644;2022-11-15T00:31:26;2.38;;;0.75;;
64851;SDS011;56050;55.558;-4.644;2022-11-15T00:33:51;1.45;;;0.80;;
64851;SDS011;56050;55.558;-4.644;2022-11-15T00:36:16;1.42;;;0.30;;
64851;SDS011;56050;55.558;-4.644;2022-11-15T00:38:42;1.30;;;0.30;;
64851;SDS011;56050;55.558;-4.644;2022-11-15T00:41:07;2.53;;;0.90;;
64851;SDS011;56050;55.558;-4.644;2022-11-15T00:43:33;1.83;;;0.35;;
64851;SDS011;56050;55.558;-4.644;2022-11-15T00:45:59;4.97;;;0.40;;
64851;SDS011;56050;55.558;-4.644;2022-11-15T00:48:25;1.95;;;0.88;;
64851;SDS011;56050;55.558;-4.644;2022-11-15T00:50:50;2.35;;;0.60;;
64851;SDS011;56050;55.558;-4.644;2022-11-15T00:53:16;1.52;;;0.40;;
64851;SDS011;56050;55.558;-4.644;2022-11-15T00:55:42;1.60;;;0.65;;
64851;SDS011;56050;55.558;-4.644;2022-11-15T00:58:07;2.25;;;0.50;;
64851;SDS011;56050;55.558;-4.644;2022-11-15T01:00:33;1.52;;;1.42;;
64851;SDS011;56050;55.558;-4.644;2022-11-15T01:03:02;1.88;;;0.80;;
64851;SDS011;56050;55.558;-4.644;2022-11-15T01:05:27;0.85;;;0.50;;
64851;SDS011;56050;55.558;-4.644;2022-11-15T01:07:53;1.00;;;0.60;;
64851;SDS011;56050;55.558;-4.644;2022-11-15T01:10:20;0.85;;;0.50;;
64851;SDS011;56050;55.558;-4.644;2022-11-15T01:12:46;1.10;;;0.55;;
64851;SDS011;56050;55.558;-4.644;2022-11-15T01:15:12;0.60;;;0.30;;
64851;SDS011;56050;55.558;-4.644;2022-11-15T01:17:37;1.58;;;0.52;;
64851;SDS011;56050;55.558;-4.644;2022-11-15T01:20:03;2.00;;;0.40;;
64851;SDS011;56050;55.558;-4.644;2022-11-15T01:22:29;0.75;;;0.32;;
64851;SDS011;56050;55.558;-4.644;2022-11-15T01:24:54;2.15;;;0.50;;
64851;SDS011;56050;55.558;-4.644;2022-11-15T01:27:19;1.88;;;0.40;;
64851;SDS011;56050;55.558;-4.644;2022-11-15T01:29:45;1.90;;;0.65;;
64851;SDS011;56050;55.558;-4.644;2022-11-15T01:32:10;0.98;;;0.90;;
64851;SDS011;56050;55.558;-4.644;2022-11-15T01:34:36;1.15;;;0.50;;
64851;SDS011;56050;55.558;-4.644;2022-11-15T01:37:01;1.75;;;0.30;;
64851;SDS011;56050;55.558;-4.644;2022-11-15T01:39:27;1.27;;;0.43;;
64851;SDS011;56050;55.558;-4.644;2022-11-15T01:41:52;1.00;;;0.90;;
64851;SDS011;56050;55.558;-4.644;2022-11-15T01:46:55;1.25;;;0.47;;
64851;SDS011;56050;55.558;-4.644;2022-11-15T01:49:22;0.45;;;0.30;;
64851;SDS011;56050;55.558;-4.644;2022-11-15T01:51:48;1.50;;;0.40;;
64851;SDS011;56050;55.558;-4.644;2022-11-15T01:54:15;0.82;;;0.38;;
64851;SDS011;56050;55.558;-4.644;2022-11-15T01:56:48;1.58;;;0.40;;
64851;SDS011;56050;55.558;-4.644;2022-11-15T01:59:18;0.80;;;0.40;;
64851;SDS011;56050;55.558;-4.644;2022-11-15T02:01:44;0.55;;;0.35;;
64851;SDS011;56050;55.558;-4.644;2022-11-15T02:06:36;0.95;;;0.52;;
64851;SDS011;56050;55.558;-4.644;2022-11-15T02:09:02;1.05;;;0.68;;
64851;SDS011;56050;55.558;-4.644;2022-11-15T02:11:28;0.80;;;0.60;;
64851;SDS011;56050;55.558;-4.644;2022-11-15T02:13:54;0.90;;;0.55;;
64851;SDS011;56050;55.558;-4.644;2022-11-15T02:16:28;2.17;;;0.50;;
64851;SDS011;56050;55.558;-4.644;2022-11-15T02:33:38;1.05;;;0.55;;
64851;SDS011;56050;55.558;-4.644;2022-11-15T02:36:15;1.23;;;0.43;;
64851;SDS011;56050;55.558;-4.644;2022-11-15T02:39:07;1.02;;;0.73;;
64851;SDS011;56050;55.558;-4.644;2022-11-15T02:41:39;1.38;;;0.57;;
64851;SDS011;56050;55.558;-4.644;2022-11-15T02:44:35;1.23;;;0.40;;
64851;SDS011;56050;55.558;-4.644;2022-11-15T02:47:04;0.70;;;0.20;;
64851;SDS011;56050;55.558;-4.644;2022-11-15T02:49:40;1.10;;;0.52;;
64851;SDS011;56050;55.558;-4.644;2022-11-15T02:52:14;1.55;;;0.60;;
64851;SDS011;56050;55.558;-4.644;2022-11-15T02:54:40;2.17;;;0.65;;
64851;SDS011;56050;55.558;-4.644;2022-11-15T02:57:14;1.40;;;0.60;;
64851;SDS011;56050;55.558;-4.644;2022-11-15T03:02:36;1.52;;;0.73;;
64851;SDS011;56050;55.558;-4.644;2022-11-15T03:05:35;2.28;;;1.25;;
64851;SDS011;56050;55.558;-4.644;2022-11-15T03:08:15;5.18;;;0.85;;
64851;SDS011;56050;55.558;-4.644;2022-11-15T03:11:18;2.25;;;0.68;;
64851;SDS011;56050;55.558;-4.644;2022-11-15T03:13:59;2.15;;;0.68;;
64851;SDS011;56050;55.558;-4.644;2022-11-15T03:16:49;3.47;;;3.22;;
64851;SDS011;56050;55.558;-4.644;2022-11-15T03:19:28;3.60;;;1.40;;
64851;SDS011;56050;55.558;-4.644;2022-11-15T03:21:59;3.15;;;1.38;;
64851;SDS011;56050;55.558;-4.644;2022-11-15T03:24:28;2.88;;;1.70;;
64851;SDS011;56050;55.558;-4.644;2022-11-15T03:26:58;3.47;;;1.60;;
64851;SDS011;56050;55.558;-4.644;2022-11-15T03:29:28;3.03;;;1.05;;
64851;SDS011;56050;55.558;-4.644;2022-11-15T03:32:06;2.97;;;1.13;;
64851;SDS011;56050;55.558;-4.644;2022-11-15T03:34:47;3.90;;;1.55;;
64851;SDS011;56050;55.558;-4.644;2022-11-15T03:37:17;2.10;;;0.70;;
64851;SDS011;56050;55.558;-4.644;2022-11-15T03:39:47;3.28;;;1.25;;
64851;SDS011;56050;55.558;-4.644;2022-11-15T03:44:51;4.68;;;1.42;;
64851;SDS011;56050;55.558;-4.644;2022-11-15T03:47:25;3.45;;;1.50;;
64851;SDS011;56050;55.558;-4.644;2022-11-15T03:50:16;2.97;;;1.20;;
64851;SDS011;56050;55.558;-4.644;2022-11-15T03:52:47;3.15;;;0.73;;
64851;SDS011;56050;55.558;-4.644;2022-11-15T03:55:16;2.95;;;1.55;;
64851;SDS011;56050;55.558;-4.644;2022-11-15T03:57:44;5.03;;;1.60;;
64851;SDS011;56050;55.558;-4.644;2022-11-15T04:00:09;6.30;;;1.67;;
64851;SDS011;56050;55.558;-4.644;2022-11-15T04:02:36;4.18;;;1.70;;
64851;SDS011;56050;55.558;-4.644;2022-11-15T04:05:01;6.50;;;2.10;;
64851;SDS011;56050;55.558;-4.644;2022-11-15T04:07:27;4.65;;;1.98;;
64851;SDS011;56050;55.558;-4.644;2022-11-15T04:09:52;4.78;;;1.88;;
64851;SDS011;56050;55.558;-4.644;2022-11-15T04:12:33;3.72;;;1.75;;
64851;SDS011;56050;55.558;-4.644;2022-11-15T04:15:05;4.75;;;1.52;;
64851;SDS011;56050;55.558;-4.644;2022-11-15T04:17:37;4.05;;;1.33;;
64851;SDS011;56050;55.558;-4.644;2022-11-15T04:20:29;4.30;;;1.40;;
64851;SDS011;56050;55.558;-4.644;2022-11-15T04:26:00;3.15;;;0.70;;
64851;SDS011;56050;55.558;-4.644;2022-11-15T04:28:27;3.08;;;0.90;;
64851;SDS011;56050;55.558;-4.644;2022-11-15T04:30:52;4.65;;;1.33;;
64851;SDS011;56050;55.558;-4.644;2022-11-15T04:33:18;3.35;;;0.60;;
64851;SDS011;56050;55.558;-4.644;2022-11-15T04:35:44;2.67;;;0.90;;
64851;SDS011;56050;55.558;-4.644;2022-11-15T04:38:29;2.05;;;0.85;;
64851;SDS011;56050;55.558;-4.644;2022-11-15T04:40:54;2.88;;;0.80;;
64851;SDS011;56050;55.558;-4.644;2022-11-15T04:43:20;3.05;;;0.93;;
64851;SDS011;56050;55.558;-4.644;2022-11-15T04:45:45;1.30;;;0.40;;
64851;SDS011;56050;55.558;-4.644;2022-11-15T04:48:11;1.75;;;0.73;;
64851;SDS011;56050;55.558;-4.644;2022-11-15T04:50:36;1.20;;;0.60;;
64851;SDS011;56050;55.558;-4.644;2022-11-15T04:53:01;1.17;;;0.63;;
64851;SDS011;56050;55.558;-4.644;2022-11-15T04:55:27;1.42;;;0.30;;
64851;SDS011;56050;55.558;-4.644;2022-11-15T04:57:59;1.20;;;0.75;;
64851;SDS011;56050;55.558;-4.644;2022-11-15T05:00:26;1.23;;;0.50;;
64851;SDS011;56050;55.558;-4.644;2022-11-15T05:02:52;1.25;;;0.50;;
64851;SDS011;56050;55.558;-4.644;2022-11-15T05:05:36;2.15;;;1.20;;
64851;SDS011;56050;55.558;-4.644;2022-11-15T05:08:03;1.63;;;0.82;;
64851;SDS011;56050;55.558;-4.644;2022-11-15T05:10:29;1.67;;;0.70;;
64851;SDS011;56050;55.558;-4.644;2022-11-15T05:12:54;2.10;;;0.80;;
64851;SDS011;56050;55.558;-4.644;2022-11-15T05:15:20;2.83;;;0.63;;
64851;SDS011;56050;55.558;-4.644;2022-11-15T05:17:45;2.13;;;0.73;;
64851;SDS011;56050;55.558;-4.644;2022-11-15T05:20:11;3.22;;;0.77;;
64851;SDS011;56050;55.558;-4.644;2022-11-15T05:22:37;2.78;;;1.45;;
64851;SDS011;56050;55.558;-4.644;2022-11-15T05:25:03;2.75;;;1.02;;
64851;SDS011;56050;55.558;-4.644;2022-11-15T05:27:29;2.80;;;0.70;;
64851;SDS011;56050;55.558;-4.644;2022-11-15T05:29:54;2.70;;;0.70;;
64851;SDS011;56050;55.558;-4.644;2022-11-15T05:32:20;2.13;;;0.63;;
64851;SDS011;56050;55.558;-4.644;2022-11-15T05:34:46;2.17;;;0.45;;
64851;SDS011;56050;55.558;-4.644;2022-11-15T05:37:12;2.72;;;0.80;;
64851;SDS011;56050;55.558;-4.644;2022-11-15T05:39:38;1.67;;;0.60;;
64851;SDS011;56050;55.558;-4.644;2022-11-15T05:42:14;2.33;;;1.15;;
64851;SDS011;56050;55.558;-4.644;2022-11-15T05:44:41;1.75;;;0.70;;
64851;SDS011;56050;55.558;-4.644;2022-11-15T05:47:13;3.10;;;0.85;;
64851;SDS011;56050;55.558;-4.644;2022-11-15T05:49:45;2.80;;;0.93;;
64851;SDS011;56050;55.558;-4.644;2022-11-15T05:52:13;2.88;;;0.82;;
64851;SDS011;56050;55.558;-4.644;2022-11-15T05:54:43;3.47;;;0.98;;
64851;SDS011;56050;55.558;-4.644;2022-11-15T05:57:09;1.80;;;0.65;;
64851;SDS011;56050;55.558;-4.644;2022-11-15T05:59:34;2.15;;;0.93;;
64851;SDS011;56050;55.558;-4.644;2022-11-15T06:02:00;2.88;;;1.00;;
64851;SDS011;56050;55.558;-4.644;2022-11-15T06:04:26;3.28;;;1.10;;
64851;SDS011;56050;55.558;-4.644;2022-11-15T06:06:51;4.50;;;1.40;;
64851;SDS011;56050;55.558;-4.644;2022-11-15T06:09:17;3.28;;;1.00;;
64851;SDS011;56050;55.558;-4.644;2022-11-15T06:11:42;3.30;;;0.80;;
64851;SDS011;56050;55.558;-4.644;2022-11-15T06:14:08;2.38;;;0.98;;
64851;SDS011;56050;55.558;-4.644;2022-11-15T06:16:33;2.95;;;0.57;;
64851;SDS011;56050;55.558;-4.644;2022-11-15T06:18:59;2.55;;;1.08;;
64851;SDS011;56050;55.558;-4.644;2022-11-15T06:21:24;2.42;;;0.93;;
64851;SDS011;56050;55.558;-4.644;2022-11-15T06:23:52;2.83;;;0.98;;
64851;SDS011;56050;55.558;-4.644;2022-11-15T06:26:18;1.60;;;0.95;;
64851;SDS011;56050;55.558;-4.644;2022-11-15T06:28:44;2.97;;;0.73;;
64851;SDS011;56050;55.558;-4.644;2022-11-15T06:31:10;2.03;;;0.50;;
64851;SDS011;56050;55.558;-4.644;2022-11-15T06:33:36;1.70;;;0.70;;
64851;SDS011;56050;55.558;-4.644;2022-11-15T06:36:04;1.45;;;0.63;;
64851;SDS011;56050;55.558;-4.644;2022-11-15T06:38:31;2.75;;;0.52;;
64851;SDS011;56050;55.558;-4.644;2022-11-15T06:41:02;1.48;;;0.65;;
64851;SDS011;56050;55.558;-4.644;2022-11-15T06:43:29;1.65;;;0.73;;
64851;SDS011;56050;55.558;-4.644;2022-11-15T06:45:56;4.50;;;0.40;;
64851;SDS011;56050;55.558;-4.644;2022-11-15T06:48:24;1.42;;;0.35;;
64851;SDS011;56050;55.558;-4.644;2022-11-15T06:50:50;1.65;;;1.05;;
64851;SDS011;56050;55.558;-4.644;2022-11-15T06:53:19;1.00;;;0.40;;
64851;SDS011;56050;55.558;-4.644;2022-11-15T06:55:45;1.63;;;0.57;;
64851;SDS011;56050;55.558;-4.644;2022-11-15T06:58:10;3.47;;;0.63;;
64851;SDS011;56050;55.558;-4.644;2022-11-15T07:00:36;1.33;;;0.57;;
64851;SDS011;56050;55.558;-4.644;2022-11-15T07:03:01;0.98;;;0.80;;
64851;SDS011;56050;55.558;-4.644;2022-11-15T07:05:27;1.42;;;0.57;;
64851;SDS011;56050;55.558;-4.644;2022-11-15T07:07:53;1.92;;;0.63;;
64851;SDS011;56050;55.558;-4.644;2022-11-15T07:10:20;1.92;;;1.75;;
64851;SDS011;56050;55.558;-4.644;2022-11-15T07:12:50;3.20;;;0.47;;
64851;SDS011;56050;55.558;-4.644;2022-11-15T07:15:17;0.70;;;0.60;;
64851;SDS011;56050;55.558;-4.644;2022-11-15T07:17:43;2.35;;;0.38;;
64851;SDS011;56050;55.558;-4.644;2022-11-15T07:20:09;0.80;;;0.43;;
64851;SDS011;56050;55.558;-4.644;2022-11-15T07:22:35;1.15;;;0.55;;
64851;SDS011;56050;55.558;-4.644;2022-11-15T07:25:00;1.38;;;0.40;;
64851;SDS011;56050;55.558;-4.644;2022-11-15T07:27:26;1.85;;;0.40;;
64851;SDS011;56050;55.558;-4.644;2022-11-15T07:29:51;0.30;;;0.20;;
64851;SDS011;56050;55.558;-4.644;2022-11-15T07:32:17;0.82;;;0.40;;
64851;SDS011;56050;55.558;-4.644;2022-11-15T07:34:42;0.65;;;0.35;;
64851;SDS011;56050;55.558;-4.644;2022-11-15T07:37:08;0.88;;;0.30;;
64851;SDS011;56050;55.558;-4.644;2022-11-15T07:39:34;0.82;;;0.40;;
64851;SDS011;56050;55.558;-4.644;2022-11-15T07:41:59;1.10;;;0.52;;
64851;SDS011;56050;55.558;-4.644;2022-11-15T07:44:43;0.50;;;0.40;;
64851;SDS011;56050;55.558;-4.644;2022-11-15T07:47:08;0.60;;;0.30;;
64851;SDS011;56050;55.558;-4.644;2022-11-15T07:49:34;2.88;;;0.32;;
64851;SDS011;56050;55.558;-4.644;2022-11-15T07:51:59;0.65;;;0.38;;
64851;SDS011;56050;55.558;-4.644;2022-11-15T07:54:25;0.60;;;0.60;;
64851;SDS011;56050;55.558;-4.644;2022-11-15T07:56:50;0.65;;;0.38;;
64851;SDS011;56050;55.558;-4.644;2022-11-15T07:59:16;0.63;;;0.50;;
64851;SDS011;56050;55.558;-4.644;2022-11-15T08:01:41;1.92;;;1.55;;
64851;SDS011;56050;55.558;-4.644;2022-11-15T08:04:06;1.58;;;1.48;;
64851;SDS011;56050;55.558;-4.644;2022-11-15T08:06:32;0.65;;;0.32;;
64851;SDS011;56050;55.558;-4.644;2022-11-15T08:08:57;0.45;;;0.20;;
64851;SDS011;56050;55.558;-4.644;2022-11-15T08:11:23;0.52;;;0.52;;
64851;SDS011;56050;55.558;-4.644;2022-11-15T08:13:48;0.40;;;0.30;;
64851;SDS011;56050;55.558;-4.644;2022-11-15T08:16:14;1.52;;;1.42;;
64851;SDS011;56050;55.558;-4.644;2022-11-15T08:18:39;2.25;;;0.40;;
64851;SDS011;56050;55.558;-4.644;2022-11-15T08:21:04;0.40;;;0.30;;
64851;SDS011;56050;55.558;-4.644;2022-11-15T08:23:30;0.43;;;0.30;;
64851;SDS011;56050;55.558;-4.644;2022-11-15T08:26:03;0.75;;;0.30;;
64851;SDS011;56050;55.558;-4.644;2022-11-15T08:28:29;0.63;;;0.40;;
64851;SDS011;56050;55.558;-4.644;2022-11-15T08:30:55;0.38;;;0.20;;
64851;SDS011;56050;55.558;-4.644;2022-11-15T08:33:21;0.35;;;0.30;;
64851;SDS011;56050;55.558;-4.644;2022-11-15T08:35:46;0.82;;;0.40;;
64851;SDS011;56050;55.558;-4.644;2022-11-15T08:38:13;3.85;;;0.60;;
64851;SDS011;56050;55.558;-4.644;2022-11-15T08:40:39;1.65;;;0.60;;
64851;SDS011;56050;55.558;-4.644;2022-11-15T08:43:05;0.77;;;0.30;;
64851;SDS011;56050;55.558;-4.644;2022-11-15T08:45:31;0.77;;;0.30;;
64851;SDS011;56050;55.558;-4.644;2022-11-15T08:48:01;0.45;;;0.30;;
64851;SDS011;56050;55.558;-4.644;2022-11-15T08:50:28;0.93;;;0.50;;
64851;SDS011;56050;55.558;-4.644;2022-11-15T08:52:53;0.60;;;0.20;;
64851;SDS011;56050;55.558;-4.644;2022-11-15T08:55:19;0.73;;;0.43;;
64851;SDS011;56050;55.558;-4.644;2022-11-15T08:57:44;1.02;;;0.32;;
64851;SDS011;56050;55.558;-4.644;2022-11-15T09:00:10;1.27;;;0.20;;
64851;SDS011;56050;55.558;-4.644;2022-11-15T09:02:37;0.80;;;0.40;;
64851;SDS011;56050;55.558;-4.644;2022-11-15T09:05:04;1.35;;;0.45;;
64851;SDS011;56050;55.558;-4.644;2022-11-15T09:07:29;1.70;;;0.28;;
64851;SDS011;56050;55.558;-4.644;2022-11-15T09:09:56;0.38;;;0.22;;
64851;SDS011;56050;55.558;-4.644;2022-11-15T09:12:22;0.73;;;0.20;;
64851;SDS011;56050;55.558;-4.644;2022-11-15T09:14:47;0.63;;;0.40;;
64851;SDS011;56050;55.558;-4.644;2022-11-15T09:17:13;0.80;;;0.63;;
64851;SDS011;56050;55.558;-4.644;2022-11-15T09:19:38;0.85;;;0.85;;
64851;SDS011;56050;55.558;-4.644;2022-11-15T09:22:07;0.52;;;0.20;;
64851;SDS011;56050;55.558;-4.644;2022-11-15T09:24:33;0.60;;;0.22;;
64851;SDS011;56050;55.558;-4.644;2022-11-15T09:26:59;0.77;;;0.68;;
64851;SDS011;56050;55.558;-4.644;2022-11-15T09:29:25;0.50;;;0.20;;
64851;SDS011;56050;55.558;-4.644;2022-11-15T09:31:53;1.10;;;0.40;;
64851;SDS011;56050;55.558;-4.644;2022-11-15T09:34:19;0.70;;;0.30;;
64851;SDS011;56050;55.558;-4.644;2022-11-15T09:36:45;1.30;;;0.38;;
64851;SDS011;56050;55.558;-4.644;2022-11-15T09:39:11;0.80;;;0.77;;
64851;SDS011;56050;55.558;-4.644;2022-11-15T09:49:35;0.28;;;0.20;;
64851;SDS011;56050;55.558;-4.644;2022-11-15T09:52:00;0.50;;;0.20;;
64851;SDS011;56050;55.558;-4.644;2022-11-15T09:54:34;0.30;;;0.30;;
64851;SDS011;56050;55.558;-4.644;2022-11-15T10:04:38;0.45;;;0.30;;
64851;SDS011;56050;55.558;-4.644;2022-11-15T10:07:15;0.30;;;0.28;;
64851;SDS011;56050;55.558;-4.644;2022-11-15T10:12:41;0.60;;;0.28;;
64851;SDS011;56050;55.558;-4.644;2022-11-15T10:15:13;0.50;;;0.30;;
64851;SDS011;56050;55.558;-4.644;2022-11-15T10:22:53;0.20;;;0.20;;
64851;SDS011;56050;55.558;-4.644;2022-11-15T10:25:30;0.30;;;0.20;;
64851;SDS011;56050;55.558;-4.644;2022-11-15T10:28:16;0.52;;;0.20;;
64851;SDS011;56050;55.558;-4.644;2022-11-15T10:30:51;0.57;;;0.30;;
64851;SDS011;56050;55.558;-4.644;2022-11-15T10:38:35;0.70;;;0.32;;
64851;SDS011;56050;55.558;-4.644;2022-11-15T10:41:15;1.05;;;0.40;;
64851;SDS011;56050;55.558;-4.644;2022-11-15T10:43:42;1.00;;;0.30;;
64851;SDS011;56050;55.558;-4.644;2022-11-15T10:46:21;0.63;;;0.40;;
64851;SDS011;56050;55.558;-4.644;2022-11-15T10:48:49;0.20;;;0.17;;
64851;SDS011;56050;55.558;-4.644;2022-11-15T10:51:25;1.67;;;0.55;;
64851;SDS011;56050;55.558;-4.644;2022-11-15T10:53:57;0.43;;;0.22;;
64851;SDS011;56050;55.558;-4.644;2022-11-15T10:56:24;0.80;;;0.40;;
64851;SDS011;56050;55.558;-4.644;2022-11-15T10:58:55;1.38;;;0.30;;
64851;SDS011;56050;55.558;-4.644;2022-11-15T11:01:23;0.75;;;0.50;;
64851;SDS011;56050;55.558;-4.644;2022-11-15T11:04:03;1.38;;;0.40;;
64851;SDS011;56050;55.558;-4.644;2022-11-15T11:06:30;0.77;;;0.75;;
64851;SDS011;56050;55.558;-4.644;2022-11-15T11:09:31;0.98;;;0.20;;
64851;SDS011;56050;55.558;-4.644;2022-11-15T11:11:59;0.80;;;0.30;;
64851;SDS011;56050;55.558;-4.644;2022-11-15T11:22:27;1.02;;;0.47;;
64851;SDS011;56050;55.558;-4.644;2022-11-15T11:33:16;0.77;;;0.30;;
64851;SDS011;56050;55.558;-4.644;2022-11-15T11:57:12;0.63;;;0.30;;
64851;SDS011;56050;55.558;-4.644;2022-11-15T11:59:53;0.47;;;0.25;;
64851;SDS011;56050;55.558;-4.644;2022-11-15T12:02:28;0.85;;;0.40;;
64851;SDS011;56050;55.558;-4.644;2022-11-15T12:05:01;1.13;;;0.40;;
64851;SDS011;56050;55.558;-4.644;2022-11-15T12:07:33;0.60;;;0.38;;
64851;SDS011;56050;55.558;-4.644;2022-11-15T12:10:22;0.80;;;0.20;;
64851;SDS011;56050;55.558;-4.644;2022-11-15T12:12:55;0.70;;;0.30;;
64851;SDS011;56050;55.558;-4.644;2022-11-15T12:15:31;0.98;;;0.40;;
64851;SDS011;56050;55.558;-4.644;2022-11-15T12:18:01;0.40;;;0.40;;
64851;SDS011;56050;55.558;-4.644;2022-11-15T12:20:28;1.00;;;0.30;;
64851;SDS011;56050;55.558;-4.644;2022-11-15T12:25:48;1.00;;;0.93;;
64851;SDS011;56050;55.558;-4.644;2022-11-15T12:28:40;0.65;;;0.20;;
64851;SDS011;56050;55.558;-4.644;2022-11-15T12:34:04;0.30;;;0.30;;
64851;SDS011;56050;55.558;-4.644;2022-11-15T12:36:42;0.50;;;0.50;;
64851;SDS011;56050;55.558;-4.644;2022-11-15T12:39:12;0.20;;;0.20;;
64851;SDS011;56050;55.558;-4.644;2022-11-15T12:41:39;1.33;;;0.30;;
64851;SDS011;56050;55.558;-4.644;2022-11-15T12:44:10;0.35;;;0.30;;
64851;SDS011;56050;55.558;-4.644;2022-11-15T13:02:30;0.32;;;0.32;;
64851;SDS011;56050;55.558;-4.644;2022-11-15T13:15:30;0.50;;;0.20;;
64851;SDS011;56050;55.558;-4.644;2022-11-15T13:17:56;1.42;;;0.32;;
64851;SDS011;56050;55.558;-4.644;2022-11-15T13:23:09;0.50;;;0.40;;
64851;SDS011;56050;55.558;-4.644;2022-11-15T13:31:14;0.70;;;0.60;;
64851;SDS011;56050;55.558;-4.644;2022-11-15T13:33:48;1.92;;;0.60;;
64851;SDS011;56050;55.558;-4.644;2022-11-15T13:36:24;0.82;;;0.22;;
64851;SDS011;56050;55.558;-4.644;2022-11-15T13:38:55;1.20;;;0.65;;
64851;SDS011;56050;55.558;-4.644;2022-11-15T13:41:30;1.08;;;0.40;;
64851;SDS011;56050;55.558;-4.644;2022-11-15T13:43:58;1.58;;;0.40;;
64851;SDS011;56050;55.558;-4.644;2022-11-15T13:46:25;0.30;;;0.20;;
64851;SDS011;56050;55.558;-4.644;2022-11-15T13:49:00;1.38;;;0.22;;
64851;SDS011;56050;55.558;-4.644;2022-11-15T13:54:00;0.68;;;0.35;;
64851;SDS011;56050;55.558;-4.644;2022-11-15T13:56:48;2.40;;;0.75;;
64851;SDS011;56050;55.558;-4.644;2022-11-15T13:59:26;2.00;;;0.70;;
64851;SDS011;56050;55.558;-4.644;2022-11-15T14:01:53;3.17;;;0.70;;
64851;SDS011;56050;55.558;-4.644;2022-11-15T14:04:21;5.53;;;1.38;;
64851;SDS011;56050;55.558;-4.644;2022-11-15T14:06:55;2.90;;;0.85;;
64851;SDS011;56050;55.558;-4.644;2022-11-15T14:09:30;3.28;;;1.58;;
64851;SDS011;56050;55.558;-4.644;2022-11-15T14:11:58;3.22;;;1.30;;
64851;SDS011;56050;55.558;-4.644;2022-11-15T14:14:25;4.13;;;1.17;;
64851;SDS011;56050;55.558;-4.644;2022-11-15T14:16:54;4.25;;;0.80;;
64851;SDS011;56050;55.558;-4.644;2022-11-15T14:24:35;2.92;;;0.60;;
64851;SDS011;56050;55.558;-4.644;2022-11-15T14:29:50;1.90;;;0.63;;
64851;SDS011;56050;55.558;-4.644;2022-11-15T14:32:20;1.40;;;0.38;;
64851;SDS011;56050;55.558;-4.644;2022-11-15T14:34:57;2.05;;;0.60;;
64851;SDS011;56050;55.558;-4.644;2022-11-15T14:37:29;0.73;;;0.40;;
64851;SDS011;56050;55.558;-4.644;2022-11-15T14:40:00;1.58;;;1.17;;
64851;SDS011;56050;55.558;-4.644;2022-11-15T14:42:26;1.52;;;0.40;;
64851;SDS011;56050;55.558;-4.644;2022-11-15T14:44:52;2.60;;;0.20;;
64851;SDS011;56050;55.558;-4.644;2022-11-15T14:47:18;2.90;;;0.50;;
64851;SDS011;56050;55.558;-4.644;2022-11-15T14:49:43;3.67;;;0.93;;
64851;SDS011;56050;55.558;-4.644;2022-11-15T14:57:20;5.32;;;1.23;;
64851;SDS011;56050;55.558;-4.644;2022-11-15T14:59:45;4.88;;;2.17;;
64851;SDS011;56050;55.558;-4.644;2022-11-15T15:02:32;1.85;;;0.40;;
64851;SDS011;56050;55.558;-4.644;2022-11-15T15:04:56;2.50;;;0.55;;
64851;SDS011;56050;55.558;-4.644;2022-11-15T15:07:25;1.27;;;0.40;;
64851;SDS011;56050;55.558;-4.644;2022-11-15T15:09:51;4.95;;;0.65;;
64851;SDS011;56050;55.558;-4.644;2022-11-15T15:12:17;3.53;;;0.43;;
64851;SDS011;56050;55.558;-4.644;2022-11-15T15:14:47;2.55;;;0.40;;
64851;SDS011;56050;55.558;-4.644;2022-11-15T15:17:14;2.88;;;0.40;;
64851;SDS011;56050;55.558;-4.644;2022-11-15T15:19:40;3.47;;;0.25;;
64851;SDS011;56050;55.558;-4.644;2022-11-15T15:22:09;0.75;;;0.10;;
64851;SDS011;56050;55.558;-4.644;2022-11-15T15:24:39;1.83;;;0.30;;
64851;SDS011;56050;55.558;-4.644;2022-11-15T15:27:04;4.15;;;0.63;;
64851;SDS011;56050;55.558;-4.644;2022-11-15T15:29:29;2.40;;;0.30;;
64851;SDS011;56050;55.558;-4.644;2022-11-15T15:31:55;4.68;;;0.43;;
64851;SDS011;56050;55.558;-4.644;2022-11-15T15:34:20;1.58;;;0.30;;
64851;SDS011;56050;55.558;-4.644;2022-11-15T15:36:46;4.18;;;0.52;;
64851;SDS011;56050;55.558;-4.644;2022-11-15T15:39:11;5.95;;;0.98;;
64851;SDS011;56050;55.558;-4.644;2022-11-15T15:41:37;2.67;;;0.43;;
64851;SDS011;56050;55.558;-4.644;2022-11-15T15:44:02;3.00;;;0.40;;
64851;SDS011;56050;55.558;-4.644;2022-11-15T15:46:28;1.75;;;0.47;;
64851;SDS011;56050;55.558;-4.644;2022-11-15T15:48:53;2.05;;;0.50;;
64851;SDS011;56050;55.558;-4.644;2022-11-15T15:51:18;4.47;;;0.40;;
64851;SDS011;56050;55.558;-4.644;2022-11-15T15:53:44;1.00;;;0.30;;
64851;SDS011;56050;55.558;-4.644;2022-11-15T15:56:09;5.95;;;0.47;;
64851;SDS011;56050;55.558;-4.644;2022-11-15T15:58:35;3.38;;;2.10;;
64851;SDS011;56050;55.558;-4.644;2022-11-15T16:01:00;0.73;;;0.73;;
64851;SDS011;56050;55.558;-4.644;2022-11-15T16:03:26;1.85;;;0.70;;
64851;SDS011;56050;55.558;-4.644;2022-11-15T16:05:52;3.22;;;0.70;;
64851;SDS011;56050;55.558;-4.644;2022-11-15T16:08:19;3.88;;;0.90;;
64851;SDS011;56050;55.558;-4.644;2022-11-15T16:10:46;2.35;;;1.08;;
64851;SDS011;56050;55.558;-4.644;2022-11-15T16:13:12;4.53;;;0.68;;
64851;SDS011;56050;55.558;-4.644;2022-11-15T16:15:37;2.95;;;0.45;;
64851;SDS011;56050;55.558;-4.644;2022-11-15T16:18:03;1.38;;;0.30;;
64851;SDS011;56050;55.558;-4.644;2022-11-15T16:23:00;2.58;;;0.50;;
64851;SDS011;56050;55.558;-4.644;2022-11-15T16:25:27;3.53;;;0.50;;
64851;SDS011;56050;55.558;-4.644;2022-11-15T16:27:53;2.75;;;0.70;;
64851;SDS011;56050;55.558;-4.644;2022-11-15T16:30:20;2.35;;;0.50;;
64851;SDS011;56050;55.558;-4.644;2022-11-15T16:32:47;3.00;;;0.40;;
64851;SDS011;56050;55.558;-4.644;2022-11-15T16:35:13;3.90;;;0.77;;
64851;SDS011;56050;55.558;-4.644;2022-11-15T16:37:40;4.03;;;0.30;;
64851;SDS011;56050;55.558;-4.644;2022-11-15T16:40:26;2.55;;;1.63;;
64851;SDS011;56050;55.558;-4.644;2022-11-15T16:42:56;1.65;;;0.30;;
64851;SDS011;56050;55.558;-4.644;2022-11-15T16:45:24;2.28;;;0.52;;
64851;SDS011;56050;55.558;-4.644;2022-11-15T16:47:51;3.03;;;0.40;;
64851;SDS011;56050;55.558;-4.644;2022-11-15T16:50:18;1.98;;;0.38;;
64851;SDS011;56050;55.558;-4.644;2022-11-15T16:52:48;3.10;;;0.40;;
64851;SDS011;56050;55.558;-4.644;2022-11-15T16:55:17;1.38;;;0.40;;
64851;SDS011;56050;55.558;-4.644;2022-11-15T16:57:43;2.88;;;0.63;;
64851;SDS011;56050;55.558;-4.644;2022-11-15T17:00:12;3.45;;;0.30;;
64851;SDS011;56050;55.558;-4.644;2022-11-15T17:02:40;1.63;;;0.73;;
64851;SDS011;56050;55.558;-4.644;2022-11-15T17:05:10;3.40;;;0.43;;
64851;SDS011;56050;55.558;-4.644;2022-11-15T17:07:36;2.95;;;0.40;;
64851;SDS011;56050;55.558;-4.644;2022-11-15T17:10:02;3.35;;;0.52;;
64851;SDS011;56050;55.558;-4.644;2022-11-15T17:12:28;2.38;;;0.35;;
64851;SDS011;56050;55.558;-4.644;2022-11-15T17:14:55;4.57;;;0.30;;
64851;SDS011;56050;55.558;-4.644;2022-11-15T17:17:20;3.88;;;0.40;;